Pahoa, HI

9:28 AM HST on July 06, 2015 (GMT -1000)
Hawaiian Shores Rec. (Malolo St.) | | Change Station
CLOSE
Current Station
Personal Weather Station
Location: Pahoa, HI
Elevation: 217 ft
Nearby Weather Stations

Elev 217 ft 19.54 °N, 154.90 °W | Updated 15 seconds ago

Overcast
Overcast
77.4 °F
Feels Like 79 °F
N
2.7
Wind Variable Wind from WNW
Gusts 4.9 mph

Today
High -- | Low -- °F
--% Chance of Precip.
Yesterday
High -- | Low -- °F
Precip. -- in
5:46 AM 7:02 PM
Waning Gibbous, 73% visible
Pressure 29.99 in
Visibility 10.0 miles
Clouds Few 2700 ft
Mostly Cloudy 5500 ft
Overcast 7000 ft
Heat Index 79 °F
Dew Point 71 °F
Humidity 82%
Rainfall 0.18 in
Snow Depth Not available.
UV 2.0 out of 12
Pollen Not available.
Air Quality Not available.
Flu Activity Not available.
METAR PHTO 061853Z 35007KT 10SM FEW027 BKN055 OVC070 27/21 A3000 RMK AO2 SLP156 T02670206

More Conditions Fewer Conditions

Pressure 29.99 in
Visibility 10.0 miles
Clouds Few 2700 ft
Mostly Cloudy 5500 ft
Overcast 7000 ft
Heat Index 79 °F
Dew Point 71 °F
Humidity 82%
Rainfall 0.18 in
Snow Depth Not available.
UV 2.0 out of 12
Pollen Not available.
Air Quality Not available.
Flu Activity Not available.
METAR PHTO 061853Z 35007KT 10SM FEW027 BKN055 OVC070 27/21 A3000 RMK AO2 SLP156 T02670206

More Conditions Fewer Conditions

10-Day Weather Forecast

×

Almanac

Astronomy

Jul. 06, 2015 Rise Set
Actual Time
Civil Twilight
Nautical Twilight
Astronomical Twilight
Moon
Length of Visible Light
Length of Day
Tomorrow will be .
, % of the Moon is Illuminated

Today's Extremes

State Highs State Lows

Community

WunderPhotos

Upload Photos

1,835,621 photos uploaded!

WunderBlogs® & News

Nearby

Air Quality

  Air Quality AQ Index Pollutant
Not available.

Snow Depth

Station Depth Elevation

Earthquake Activity

City Distance Mag. Time & Date
Minimum magnitude displayed is 2.5.

Coastal Water Temperatures

Place Temperature

Stations

Nearby Weather Stations

Station Location Temp. Windchill Dew Point Humidity Wind Precip. Elev Updated Type